Portada
METAR-TAF:

METAR-TAF

Aeroports :

Nashua, Nova Hampshire, Estats Units d'Amèrica

latitud: 42-47N, longitud: 071-31W, altitud: 61 m

Observació

L'informe es va fer fa 39 minuts, a les 16:56 UTC
Vent 5 kt amb direcció variable
Temperatura 22°C
Humitat 53%
Pressió 1022 hPa
Visibilitat: 16.1 km
Cel ennuvolat a una alçada de 4600 ft
Cel ennuvolat a una alçada de 5000 ft

METAR: KASH 241656Z VRB05KT 10SM BKN046 BKN050 22/12 A3018 RMK AO2 SLP222 T02220122

Hora: 13:35 (17:35 UTC)


TAF: manca

Observacions i pronòstics meteorològics de més de 4000 aeroports (METAR i TAF).

Les estacions disponibles són els punts grocs i vermells al mapa.

Posi el ratolí al punt desitjat per veure el nom de l'estació.

Feu clic per veure les observacions i els pronòstics meteorològics.

Per canviar el mapa: feu clic els botons verds amb una creu de color negre per apropar; al botó verd amb un guió per allunyar la imatge; o en les fletxes verdes per a mapes adjacents.


METAR-TAF: